Russellville, Vermont
Current Conditions -  °F | °C
As of 9:55 AM on Sunday 23 Nov 2014 (Local Time) from KRUT Reporting Station
Overcast Overcast  
Wind Chill:   Ceiling: 1900
Heat Index:   Visibility: 10mi
Dew Point:   Wind: 12mph
Humidity: 76%   Direction: 230°SW
Pressure: 30.09"   Gusts: 17mph
Location:  43.5432°N, 72.8545°W
Report Text: KRUT 231455Z 23010G15KT 10SM OVC019 07/03 A3009 RMK AO1 52010
Loading
Personal Weather Stations






























Interactive Weather Map New forecast layout! Learn more

10-Day Weather Forecast

Advertisements
Track Severe Weather on mobile